Home > Products > Valid Products > TAF

000
FTUS41 KBGM 221600 AAB
TAFBGM
TAF AMD
KBGM 221635Z 2217/2312 VRB03KT P6SM OVC012
     FM221800 14003KT P6SM BKN025
      TEMPO 2219/2223 3SM SHRA BR OVC018
     FM230300 13005KT 3SM BR BKN015=



000
FTUS41 KBGM 221600 AAB
TAFAVP
TAF AMD
KAVP 221606Z 2216/2312 VRB03KT P6SM BKN025
      TEMPO 2216/2218 OVC018
     FM221800 21004KT P6SM BKN035
      TEMPO 2219/2223 5SM SHRA BR OVC020
     FM230300 VRB03KT 5SM BR BKN025=



000
FTUS41 KBGM 221600 AAC
TAFITH
TAF AMD
KITH 221603Z 2216/2312 10005KT P6SM BKN018
     FM221700 15003KT P6SM BKN025
      TEMPO 2219/2223 5SM SHRA BR OVC015
     FM230300 14004KT 3SM BR BKN015=



000
FTUS41 KBGM 221500 AAA
TAFBGM
TAF AMD
KBGM 221526Z 2215/2312 VRB03KT P6SM OVC012
      TEMPO 2215/2217 3SM BR OVC003
     FM221700 14003KT P6SM BKN035
      TEMPO 2218/2222 5SM SHRA BR OVC022
     FM230300 13005KT 3SM BR BKN015=



000
FTUS41 KBGM 221400 AAA
TAFAVP
TAF AMD
KAVP 221432Z 2215/2312 VRB03KT P6SM BKN015
      TEMPO 2215/2216 SCT015 BKN030
     FM221600 21004KT P6SM BKN040
      TEMPO 2219/2223 5SM SHRA BR OVC025
     FM230300 VRB03KT 5SM BR BKN025=



000
FTUS41 KBGM 221400 AAB
TAFITH
TAF AMD
KITH 221431Z 2215/2312 10005KT P6SM SCT005 BKN070
     FM221530 15003KT P6SM BKN035
      TEMPO 2219/2223 5SM SHRA BR OVC022
     FM230300 14004KT 3SM BR BKN015=



000
FTUS41 KBGM 221300 AAA
TAFITH
TAF AMD
KITH 221329Z 2213/2312 10005KT P6SM SCT005 BKN070
      TEMPO 2213/2215 BKN005
     FM221500 15003KT P6SM BKN035
      TEMPO 2219/2223 5SM SHRA BR OVC022
     FM230300 14004KT 3SM BR BKN015=



000
FTUS41 KBGM 221300 AAA
TAFSYR
TAF AMD
KSYR 221327Z 2213/2312 VRB03KT P6SM BKN018
     FM221500 14003KT P6SM BKN040
      TEMPO 2219/2223 5SM SHRA BR OVC025
     FM230300 10004KT 5SM BR BKN025=



000
FTUS41 KBGM 221300 AAA
TAFBGM
TAF AMD
KBGM 221326Z 2213/2312 VRB03KT 1/2SM FG VV002
      TEMPO 2213/2215 2SM BR BKN012
     FM221500 14003KT P6SM BKN035
      TEMPO 2218/2222 5SM SHRA BR OVC022
     FM230300 13005KT 3SM BR BKN015=



000
FTUS41 KBGM 221100
TAFITH
TAF
KITH 221138Z 2212/2312 10005KT P6SM SCT005 BKN070
      TEMPO 2212/2213 2SM BR BKN005
     FM221400 15003KT P6SM BKN035
      TEMPO 2219/2223 5SM SHRA BR OVC022
     FM230300 14004KT 3SM BR BKN015=



000
FTUS41 KBGM 221100
TAFBGM
TAF
KBGM 221138Z 2212/2312 VRB03KT 1/2SM FG VV002
      TEMPO 2212/2213 2SM BR BKN012
     FM221300 14003KT P6SM BKN035
      TEMPO 2218/2222 5SM SHRA BR OVC022
     FM230300 13005KT 3SM BR BKN015=



000
FTUS41 KBGM 221100
TAFSYR
TAF
KSYR 221138Z 2212/2312 VRB03KT 3/4SM BR OVC003
      TEMPO 2212/2213 2SM BR BKN012
     FM221300 14003KT P6SM BKN040
      TEMPO 2219/2223 5SM SHRA BR OVC025
     FM230300 10004KT 5SM BR BKN025=



000
FTUS41 KBGM 221100
TAFELM
TAF
KELM 221138Z 2212/2312 00000KT 1/2SM FG VV002
      TEMPO 2212/2213 3SM BR BKN012
     FM221300 20003KT P6SM BKN040
      TEMPO 2219/2223 5SM SHRA BR OVC025
     FM230300 VRB02KT 2SM BR BKN004
     FM230600 00000KT 1/2SM FG VV002=



000
FTUS41 KBGM 221100
TAFAVP
TAF
KAVP 221138Z 2212/2312 VRB03KT P6SM BKN025
     FM221400 21004KT P6SM BKN040
      TEMPO 2219/2223 5SM SHRA BR OVC025
     FM230300 VRB03KT 5SM BR BKN025=



000
FTUS41 KBGM 220800 AAA
TAFELM
TAF AMD
KELM 220855Z 2209/2306 00000KT 1/2SM FG VV002
      TEMPO 2212/2214 3SM BR BKN012
     FM221400 20003KT P6SM BKN040
     FM221900 VRB03KT 5SM SHRA BR BKN025 OVC040
     FM230100 VRB02KT 3SM BR BKN025=



000
FTUS41 KBGM 220800 AAA
TAFAVP
TAF AMD
KAVP 220855Z 2209/2306 VRB03KT P6SM SCT022 BKN040
      TEMPO 2209/2213 BKN022
     FM221300 21004KT P6SM BKN040
     FM221800 VRB03KT 5SM SHRA BR BKN025 OVC035
     FM230000 VRB03KT P6SM BKN070=



000
FTUS41 KBGM 220800 AAB
TAFSYR
TAF AMD
KSYR 220855Z 2209/2306 VRB03KT 3/4SM BR OVC003
      TEMPO 2212/2213 2SM BR BKN008
     FM221300 14003KT P6SM BKN040
     FM221900 14005KT 5SM SHRA BR BKN025 OVC035
     FM230100 10004KT 5SM BR BKN025=



000
FTUS41 KBGM 220800 AAB
TAFBGM
TAF AMD
KBGM 220855Z 2209/2306 VRB03KT 1/2SM FG VV002
      TEMPO 2212/2213 2SM BR BKN012
     FM221300 14003KT P6SM BKN035
     FM221800 14005KT 5SM SHRA BR BKN022 OVC035
     FM230000 13005KT 5SM BR BKN025=



000
FTUS41 KBGM 220800 AAA
TAFITH
TAF AMD
KITH 220855Z 2209/2306 VRB02KT 3SM BR SCT008 BKN070
      TEMPO 2210/2213 1SM BR BKN008
     FM221400 15003KT P6SM BKN035
     FM221900 15005KT 5SM SHRA BR BKN022 OVC035
     FM230100 14004KT 5SM BR BKN025=



000
FTUS41 KBGM 220800 AAA
TAFSYR
TAF AMD
KSYR 220807Z 2208/2306 VRB03KT 3/4SM BR OVC003
      TEMPO 2212/2213 2SM BR BKN008
     FM221300 14003KT P6SM BKN040
     FM221900 14005KT 5SM SHRA BR BKN025 OVC035
     FM230100 10004KT 5SM BR BKN025=



000
FTUS41 KBGM 220800 AAA
TAFBGM
TAF AMD
KBGM 220804Z 2208/2306 VRB03KT 1/2SM FG VV002
      TEMPO 2213/2214 2SM BR BKN012
     FM221400 14003KT P6SM BKN035
     FM221800 14005KT 5SM SHRA BR BKN022 OVC035
     FM230000 13005KT 5SM BR BKN025=



000
FTUS41 KBGM 220500
TAFITH
TAF
KITH 220540Z 2206/2306 VRB02KT P6SM OVC008
      TEMPO 2206/2209 5SM BR SCT008 OVC015
     FM220900 VRB02KT 4SM BR OVC008
      TEMPO 2211/2213 SCT008 BKN015
     FM221400 15003KT P6SM BKN035
     FM221900 15005KT 5SM SHRA BR BKN022 OVC035
     FM230100 14004KT 5SM BR BKN025=



000
FTUS41 KBGM 220500
TAFAVP
TAF
KAVP 220540Z 2206/2306 VRB03KT 2SM TSRA BR OVC025CB
     FM220700 16003KT P6SM SCT040
      TEMPO 2209/2213 5SM BR BKN015
     FM221400 21004KT P6SM BKN040
     FM221800 VRB03KT 5SM SHRA BR BKN025 OVC035
     FM230000 VRB03KT P6SM BKN070=



000
FTUS41 KBGM 220500
TAFBGM
TAF
KBGM 220540Z 2206/2306 22003KT P6SM SCT035
      TEMPO 2207/2209 5SM BR BKN025
     FM220900 VRB03KT 4SM BR BKN015
      TEMPO 2209/2213 2SM BR OVC007
     FM221400 14003KT P6SM BKN035
     FM221800 14005KT 5SM SHRA BR BKN022 OVC035
     FM230000 13005KT 5SM BR BKN025=



000
FTUS41 KBGM 220500
TAFELM
TAF
KELM 220540Z 2206/2306 00000KT 1/2SM FG VV002
      TEMPO 2212/2214 3SM BR BKN012
     FM221400 20003KT P6SM BKN040
     FM221900 VRB03KT 5SM SHRA BR BKN025 OVC040
     FM230100 VRB02KT 3SM BR BKN025=



000
FTUS41 KBGM 220500
TAFSYR
TAF
KSYR 220540Z 2206/2306 VRB03KT P6SM SCT015 BKN050
      TEMPO 2206/2209 5SM BR BKN015
     FM220900 VRB03KT 5SM BR BKN015
      TEMPO 2209/2212 2SM BR BKN008
     FM221400 14003KT P6SM BKN040
     FM221900 14005KT 5SM SHRA BR BKN025 OVC035
     FM230100 10004KT 5SM BR BKN025=



000
FTUS41 KBGM 220400 AAB
TAFAVP
TAF AMD
KAVP 220450Z 2205/2224 VRB03KT P6SM BKN040
      TEMPO 2205/2207 3SM TSRA BR OVC025CB
     FM220700 16003KT P6SM SCT040
      TEMPO 2209/2213 BKN015
     FM221500 21004KT P6SM -SHRA BKN035=



000
FTUS41 KBGM 220200 AAA
TAFAVP
TAF AMD
KAVP 220234Z 2203/2224 VRB03KT P6SM BKN040
      TEMPO 2203/2205 -RA BKN021
     FM220500 16003KT P6SM SCT040
      TEMPO 2209/2213 BKN015
     FM221500 21004KT P6SM -SHRA BKN035=



000
FTUS41 KBGM 220200 AAA
TAFSYR
TAF AMD
KSYR 220220Z 2202/2224 VRB03KT P6SM SCT025 OVC050
      TEMPO 2208/2212 -RA OVC025
     FM221500 14003KT P6SM -SHRA BKN035=



000
FTUS41 KBGM 212300 CCA
TAFBGM
TAF COR
KBGM 212347Z 2200/2224 20007KT P6SM SCT020 BKN035
      TEMPO 2200/2201 1SM TSRA OVC035CB
     FM220700 VRB03KT 5SM BR BKN015
      TEMPO 2209/2213 1SM BR OVC007
     FM221500 14003KT P6SM BKN025
     FM221700 13005KT P6SM -SHRA SCT025 BKN040=



000
FTUS41 KBGM 212300 CCA
TAFSYR
TAF COR
KSYR 212342Z 2200/2224 VRB03KT P6SM SCT025
      TEMPO 2208/2212 OVC025
     FM221500 14003KT P6SM -SHRA BKN035=



000
FTUS41 KBGM 212300
TAFELM
TAF
KELM 212340Z 2200/2224 25007KT P6SM SCT040
      TEMPO 2201/2205 1SM BR
     FM220500 00000KT 3SM BR SCT002
      TEMPO 2205/2207 1SM BR
     FM220700 VRB03KT 1/2SM FG VV002
     FM221330 VRB03KT P6SM BKN012
     FM221500 24003KT P6SM -SHRA BKN035=



000
FTUS41 KBGM 212300
TAFAVP
TAF
KAVP 212340Z 2200/2224 16003KT P6SM SCT040
      TEMPO 2209/2213 BKN015
     FM221500 21004KT P6SM -SHRA BKN035=



000
FTUS41 KBGM 212300
TAFBGM
TAF
KBGM 212340Z 2200/2224 20007KT P6SM SCT020 BKN035
     FM220700 VRB03KT 5SM BR BKN015
      TEMPO 2209/2213 1SM BR OVC007
     FM221500 14003KT P6SM BKN025
     FM221700 13005KT P6SM -SHRA SCT025 BKN040=



000
FTUS41 KBGM 212300
TAFSYR
TAF
KSYR 212340Z 2200/2224 VRB03KT P6SM SCT025
     FM220800 VRB02KT 2SM BR OVC007
     FM221500 14003KT P6SM -SHRA BKN035=



000
FTUS41 KBGM 212300
TAFITH
TAF
KITH 212340Z 2200/2224 24005KT P6SM SCT025 BKN070
     FM220700 VRB03KT 4SM BR BKN015
      TEMPO 2210/2213 BKN009
     FM221600 17003KT P6SM -SHRA BKN035=



000
FTUS41 KBGM 212100 AAA
TAFBGM
TAF AMD
KBGM 212158Z 2122/2218 20007KT P6SM SCT020 BKN035
     FM220300 VRB03KT 5SM BR BKN015
      TEMPO 2209/2213 1SM BR OVC007
     FM221500 14003KT P6SM BKN020=



000
FTUS41 KBGM 212000 AAE
TAFITH
TAF AMD
KITH 212033Z 2121/2218 24005KT P6SM SCT025 BKN070
     FM220400 VRB03KT 4SM BR BKN015
      TEMPO 2210/2213 BKN009
     FM221500 17003KT P6SM BKN020=



000
FTUS41 KBGM 212000 AAB
TAFSYR
TAF AMD
KSYR 212014Z 2120/2218 VRB03KT P6SM SCT025
     FM220400 VRB02KT 4SM BR BKN012
     FM220800 VRB02KT 2SM BR OVC007
     FM221500 14003KT P6SM BKN015=



000
FTUS41 KBGM 211900 AAD
TAFITH
TAF AMD
KITH 211958Z 2120/2218 24005KT P6SM SCT025 BKN045
      TEMPO 2120/2121 2SM -TSRA BKN015CB
     FM220400 VRB03KT 4SM BR BKN015
      TEMPO 2210/2213 BKN009
     FM221500 17003KT P6SM BKN020=



000
FTUS41 KBGM 211900 AAC
TAFITH
TAF AMD
KITH 211951Z 2120/2218 24005KT P6SM SCT025 BKN045
     FM220400 VRB03KT 4SM BR BKN015
      TEMPO 2210/2213 BKN009
     FM221500 17003KT P6SM BKN020=



000
FTUS41 KBGM 211900 AAB
TAFITH
TAF AMD
KITH 211912Z 2119/2218 24005KT P6SM SCT018 BKN035
      TEMPO 2119/2121 30015G30KT 1SM +TSRA OVC009CB
     FM220400 VRB03KT 4SM BR BKN015
      TEMPO 2210/2213 BKN009
     FM221500 17003KT P6SM BKN020=



000
FTUS41 KBGM 211800 AAA
TAFBGM
TAF AMD
KBGM 211859Z 2119/2218 20007KT P6SM SCT020 BKN035
      TEMPO 2119/2122 2SM TSRA OVC018CB
     FM220300 VRB03KT 5SM BR BKN015
      TEMPO 2209/2213 1SM BR OVC007
     FM221500 14003KT P6SM BKN020=



000
FTUS41 KBGM 211800 AAA
TAFSYR
TAF AMD
KSYR 211859Z 2119/2218 VRB03KT P6SM SCT025
      TEMPO 2119/2120 4SM -TSRA OVC025CB
     FM220400 VRB02KT 4SM BR BKN012
     FM220800 VRB02KT 2SM BR OVC007
     FM221500 14003KT P6SM BKN015=



000
FTUS41 KBGM 211800 AAA
TAFITH
TAF AMD
KITH 211856Z 2119/2218 24005KT P6SM SCT018 BKN035
      TEMPO 2119/2121 3SM -TSRA OVC018CB
     FM220400 VRB03KT 4SM BR BKN015
      TEMPO 2210/2213 BKN009
     FM221500 17003KT P6SM BKN020=



000
FTUS41 KBGM 211700
TAFSYR
TAF
KSYR 211740Z 2118/2218 VRB03KT P6SM SCT025
      TEMPO 2119/2122 4SM -SHRA OVC025
     FM220400 VRB02KT 4SM BR BKN012
     FM220800 VRB02KT 2SM BR OVC007
     FM221500 14003KT P6SM BKN015=



000
FTUS41 KBGM 211700
TAFBGM
TAF
KBGM 211740Z 2118/2218 23007KT P6SM SCT020 BKN035
      TEMPO 2121/2123 2SM TSRA OVC018CB
     FM220300 VRB03KT 5SM BR BKN015
      TEMPO 2209/2213 1SM BR OVC007
     FM221500 14003KT P6SM BKN020=



000
FTUS41 KBGM 211700
TAFELM
TAF
KELM 211740Z 2118/2218 25007KT P6SM SCT040
     FM220300 VRB02KT 4SM BR FEW002 SCT040
      TEMPO 2205/2207 1SM BR BKN002
     FM220700 VRB03KT 1/2SM FG VV002
     FM221300 VRB03KT P6SM BKN012
     FM221500 24003KT P6SM BKN025=



000
FTUS41 KBGM 211700
TAFAVP
TAF
KAVP 211740Z 2118/2218 23005KT P6SM FEW025 SCT040
      TEMPO 2122/2124 4SM TSRA BR OVC025CB
     FM220000 16003KT P6SM SCT040
     FM220500 VRB03KT 4SM BR BKN020
      TEMPO 2209/2213 BKN015
     FM221500 21004KT P6SM BKN035=



000
FTUS41 KBGM 211700
TAFITH
TAF
KITH 211740Z 2118/2218 24005KT P6SM SCT018 BKN035
      TEMPO 2120/2122 3SM -TSRA OVC018CB
     FM220400 VRB03KT 4SM BR BKN015
      TEMPO 2210/2213 BKN009
     FM221500 17003KT P6SM BKN020=



000
FTUS41 KBGM 211200 AAA
TAFSYR
TAF AMD
KSYR 211211Z 2112/2212 10005KT P6SM FEW030 BKN100
      TEMPO 2113/2115 2SM TSRA OVC030CB
     FM211500 25005KT P6SM BKN050
     FM211800 25005KT 5SM SHRA BR BKN025 OVC040
     FM220000 24003KT 4SM BR BKN025=



000
FTUS41 KBGM 211100
TAFELM
TAF
KELM 211139Z 2112/2212 00000KT 3/4SM BR OVC003
      TEMPO 2112/2114 3SM BR OVC015
     FM211400 24005KT P6SM BKN045
     FM211800 25007KT 5SM SHRA BR BKN025 OVC040
     FM220000 VRB03KT 4SM BR BKN025
     FM220600 VRB03KT 1/2SM FG VV002=



000
FTUS41 KBGM 211100
TAFAVP
TAF
KAVP 211139Z 2112/2212 VRB03KT P6SM FEW025 SCT080
      TEMPO 2112/2114 OVC025
     FM211400 22005KT P6SM BKN040
     FM212100 23005KT 5SM SHRA BR BKN025 OVC040
     FM220300 VRB03KT 4SM BR BKN025=



000
FTUS41 KBGM 211100
TAFSYR
TAF
KSYR 211139Z 2112/2212 10005KT P6SM BKN100
     FM211500 25005KT P6SM BKN050
     FM211800 25005KT 5SM SHRA BR BKN025 OVC040
     FM220000 24003KT 4SM BR BKN025=



000
FTUS41 KBGM 211100
TAFITH
TAF
KITH 211139Z 2112/2212 16005KT P6SM BKN080
     FM211500 22005KT P6SM BKN040
     FM211800 22007KT 5SM SHRA BR BKN022 OVC035
     FM220000 VRB03KT 4SM BR BKN015=



000
FTUS41 KBGM 211100
TAFBGM
TAF
KBGM 211139Z 2112/2212 17005KT P6SM FEW015 OVC070
      TEMPO 2112/2114 OVC015
     FM211400 22007KT P6SM BKN040
     FM211800 22007KT 5SM SHRA BR BKN022 OVC035
     FM220000 22003KT 4SM BR BKN015=



000
FTUS41 KBGM 211000 AAB
TAFITH
TAF AMD
KITH 211011Z 2110/2206 16005KT P6SM BKN080
     FM211400 22005KT P6SM BKN035
     FM211800 22007KT 5SM SHRA BR BKN022 OVC035
     FM220000 VRB03KT 4SM BR BKN022=



000
FTUS41 KBGM 211000 AAB
TAFSYR
TAF AMD
KSYR 211010Z 2110/2206 10005KT P6SM BKN100
      TEMPO 2110/2112 5SM BR
     FM211500 25005KT P6SM BKN040
     FM211800 25005KT 5SM SHRA BR BKN025 OVC040
     FM220000 24003KT 4SM BR BKN025=



000
FTUS41 KBGM 210900 AAA
TAFAVP
TAF AMD
KAVP 210906Z 2109/2206 VRB03KT P6SM SCT060
     FM211400 22005KT P6SM BKN040
     FM212100 23005KT 5SM SHRA BR BKN025 OVC040
     FM220300 VRB03KT 4SM BR BKN035=



000
FTUS41 KBGM 210900 AAA
TAFSYR
TAF AMD
KSYR 210906Z 2109/2206 10005KT P6SM SCT015 OVC040
      TEMPO 2109/2112 4SM BR BKN015
     FM211500 25005KT P6SM BKN035
     FM211800 25005KT 5SM SHRA BR BKN025 OVC040
     FM220000 24003KT 4SM BR BKN025=



000
FTUS41 KBGM 210900 AAA
TAFITH
TAF AMD
KITH 210906Z 2109/2206 16005KT P6SM SCT015 BKN080
      TEMPO 2109/2112 3SM BR BKN015
     FM211300 22005KT P6SM BKN025
     FM211800 22007KT 5SM SHRA BR BKN022 OVC035
     FM220000 VRB03KT 4SM BR BKN022=



000
FTUS41 KBGM 210900 AAA
TAFBGM
TAF AMD
KBGM 210906Z 2109/2206 17005KT P6SM SCT008 OVC015
      TEMPO 2109/2112 3SM BR OVC008
     FM211300 22007KT P6SM BKN025
     FM211800 22007KT 5SM SHRA BR BKN022 OVC035
     FM220000 22003KT 4SM BR BKN022=



000
FTUS41 KBGM 210900 AAA
TAFELM
TAF AMD
KELM 210906Z 2109/2206 00000KT 3/4SM BR OVC003
      TEMPO 2113/2115 3SM BR OVC015
     FM211500 24005KT P6SM BKN035
     FM211800 25007KT 5SM SHRA BR BKN025 OVC040
     FM220000 VRB03KT 4SM BR BKN025=



000
FTUS41 KBGM 210500
TAFELM
TAF
KELM 210538Z 2106/2206 00000KT 3/4SM BR OVC003
      TEMPO 2113/2115 3SM BR OVC015
     FM211500 24005KT P6SM BKN025
     FM211800 25007KT 5SM SHRA BR BKN025 OVC040
     FM220000 VRB03KT 4SM BR BKN025=



000
FTUS41 KBGM 210500
TAFBGM
TAF
KBGM 210538Z 2106/2206 19005KT 5SM BR OVC015
      TEMPO 2106/2109 2SM BR OVC008
     FM210900 19005KT 2SM BR OVC006
     FM211500 22007KT P6SM BKN022
     FM211800 22007KT 5SM SHRA BR BKN022 OVC035
     FM220000 22003KT 4SM BR BKN022=



000
FTUS41 KBGM 210500
TAFAVP
TAF
KAVP 210538Z 2106/2206 VRB03KT P6SM SCT025 BKN050
     FM210900 VRB03KT 5SM BR BKN012 OVC025
     FM211400 22005KT P6SM SCT025 BKN040
     FM212100 23005KT 5SM SHRA BR BKN025 OVC040
     FM220300 VRB03KT 4SM BR BKN035=



000
FTUS41 KBGM 210500
TAFSYR
TAF
KSYR 210538Z 2106/2206 10005KT 5SM BR SCT025 OVC040
     FM210900 10005KT 4SM BR SCT008 OVC015
      TEMPO 2109/2112 2SM BR BKN008
     FM211500 25005KT P6SM BKN025
     FM211800 25005KT 5SM SHRA BR BKN025 OVC040
     FM220000 24003KT 4SM BR BKN025=



000
FTUS41 KBGM 210500
TAFITH
TAF
KITH 210538Z 2106/2206 16005KT P6SM SCT015 OVC040
      TEMPO 2106/2109 3SM BR OVC015
     FM210900 16005KT 2SM BR OVC008
     FM211500 22005KT P6SM BKN022
     FM211800 22007KT 5SM SHRA BR BKN022 OVC035
     FM220000 VRB03KT 4SM BR BKN022=



000
FTUS41 KBGM 210100 AAB
TAFSYR
TAF AMD
KSYR 210159Z 2102/2124 10005KT P6SM SCT005 OVC050
      TEMPO 2104/2106 3SM BR BKN025
     FM210600 17004KT 3SM BR SCT008 OVC025
     FM210800 20004KT 2SM BR BKN008 OVC015
     FM211500 25005KT 5SM BR BKN015 OVC040
     FM211700 25005KT P6SM -SHRA SCT015 BKN035=



000
FTUS41 KBGM 210100 AAA
TAFSYR
TAF AMD
KSYR 210107Z 2101/2124 20005KT 5SM BR SCT005 OVC050
      TEMPO 2101/2103 2SM BR BKN005
     FM210300 14004KT 5SM BR SCT025 BKN050
      TEMPO 2103/2106 3SM BR BKN025
     FM210600 17004KT 3SM BR SCT008 OVC025
     FM210800 20004KT 2SM BR BKN008 OVC015
     FM211500 25005KT 5SM BR BKN015 OVC040
     FM211700 25005KT P6SM -SHRA SCT015 BKN035=



000
FTUS41 KBGM 202300
TAFBGM
TAF
KBGM 202338Z 2100/2124 20005KT P6SM BKN050
      TEMPO 2100/2104 3SM -SHRA BR BKN025 OVC050
     FM210400 17004KT 4SM BR BKN025 OVC040
      TEMPO 2105/2107 2SM BR BKN007 OVC015
     FM210700 15004KT 2SM BR OVC005
     FM211500 21005KT 4SM BR OVC015
     FM211800 20005KT P6SM -SHRA BKN025 OVC040=



000
FTUS41 KBGM 202300
TAFAVP
TAF
KAVP 202338Z 2100/2124 20004KT P6SM BKN035 OVC100
     FM210200 VRB03KT P6SM SCT025 BKN050
     FM210800 VRB03KT 5SM BR SCT012 OVC025
     FM211500 22005KT P6SM SCT025 BKN040=



000
FTUS41 KBGM 202300
TAFITH
TAF
KITH 202338Z 2100/2124 11006KT 5SM BR OVC035
      TEMPO 2100/2102 3SM -SHRA BR BKN025
     FM210300 15004KT 3SM BR BKN025 OVC040
      TEMPO 2104/2106 2SM BR BKN008 OVC030
     FM210600 15004KT 2SM BR OVC007
     FM211400 20004KT 3SM BR SCT007 OVC015
     FM211800 22005KT P6SM -SHRA SCT025 OVC040=



000
FTUS41 KBGM 202300
TAFSYR
TAF
KSYR 202338Z 2100/2124 20005KT P6SM SCT025 OVC050
      TEMPO 2100/2102 5SM -SHRA BKN025
     FM210200 14004KT P6SM SCT025 BKN050
      TEMPO 2103/2106 3SM BR BKN025
     FM210600 17004KT 3SM BR SCT008 OVC025
     FM210800 20004KT 2SM BR BKN008 OVC015
     FM211500 25005KT 5SM BR BKN015 OVC040
     FM211700 25005KT P6SM -SHRA SCT015 BKN035=



000
FTUS41 KBGM 202300
TAFELM
TAF
KELM 202338Z 2100/2124 VRB03KT 5SM BR OVC035
      TEMPO 2100/2102 3SM -SHRA BR OVC025
     FM210400 00000KT 3SM BR SCT009 OVC025
      TEMPO 2104/2107 2SM BR OVC009
     FM210700 00000KT 1SM BR OVC004
     FM211500 23005KT 3SM BR SCT007 OVC025
     FM211800 25007KT P6SM -SHRA SCT025 OVC045=



000
FTUS41 KBGM 202200 AAA
TAFAVP
TAF AMD
KAVP 202207Z 2022/2118 20004KT P6SM BKN035 OVC100
      TEMPO 2022/2023 -SHRA
     FM210200 18003KT P6SM SCT025 BKN050
     FM210800 VRB03KT P6SM SCT012 OVC025
     FM211600 23005KT P6SM SCT025 BKN040=



000
FTUS41 KBGM 202000 AAA
TAFBGM
TAF AMD
KBGM 202017Z 2020/2118 24010G18KT 4SM -SHRA BR SCT025 OVC050
      TEMPO 2020/2021 1/2SM +TSRA FG BKN020CB OVC040
     FM202100 20006KT P6SM BKN050
      TEMPO 2021/2024 4SM -SHRA BR BKN025
     FM210000 15005KT P6SM BKN050
     FM210700 15005KT P6SM OVC015
      TEMPO 2108/2112 OVC009
     FM211600 20005KT P6SM -SHRA BKN025=



000
FTUS41 KBGM 201700
TAFELM
TAF
KELM 201740Z 2018/2118 VRB03KT P6SM -SHRA SCT020 OVC035
      TEMPO 2018/2021 2SM TSRA OVC020CB
     FM202100 16006KT P6SM OVC035
      TEMPO 2021/2024 5SM -SHRA
     FM210000 00000KT P6SM BKN050
     FM210700 00000KT 3SM BR SCT009 OVC025
      TEMPO 2108/2112 OVC009
     FM211600 25005KT P6SM -SHRA BKN035=



000
FTUS41 KBGM 201700
TAFSYR
TAF
KSYR 201740Z 2018/2118 20005KT P6SM -SHRA OVC050
      TEMPO 2018/2022 2SM TSRA BKN025CB
     FM202200 16006KT P6SM OVC050
      TEMPO 2022/2102 5SM -SHRA
     FM210200 14005KT P6SM BKN050
      TEMPO 2108/2112 BKN025
     FM211600 25005KT P6SM -SHRA BKN035=



000
FTUS41 KBGM 201700
TAFBGM
TAF
KBGM 201740Z 2018/2118 20006KT P6SM BKN050
      TEMPO 2020/2024 4SM -SHRA BR
     FM210000 15005KT P6SM BKN050
     FM210700 15005KT P6SM OVC015
      TEMPO 2108/2112 OVC009
     FM211600 20005KT P6SM -SHRA BKN025=



000
FTUS41 KBGM 201700
TAFAVP
TAF
KAVP 201740Z 2018/2118 23004KT P6SM BKN035 OVC050
      TEMPO 2022/2102 3SM -SHRA BR OVC025
     FM210200 16003KT P6SM SCT025 BKN050
     FM210800 16003KT P6SM SCT012 OVC025
     FM211600 23005KT P6SM SCT025 BKN040=



000
FTUS41 KBGM 201700
TAFITH
TAF
KITH 201740Z 2018/2118 17006KT P6SM -SHRA BKN050 OVC080
      TEMPO 2018/2022 2SM TSRA OVC020CB
     FM202200 16006KT P6SM OVC035
      TEMPO 2022/2101 5SM -SHRA
     FM210100 15005KT P6SM BKN050
     FM210700 15005KT P6SM OVC015
      TEMPO 2108/2112 OVC009
     FM211600 20005KT P6SM -SHRA BKN025=



000
FTUS41 KBGM 201600 AAA
TAFITH
TAF AMD
KITH 201647Z 2017/2112 17006KT P6SM -SHRA BKN050 OVC080
      TEMPO 2017/2020 2SM TSRA OVC020CB
     FM202000 16006KT 5SM -SHRA BR BKN050 OVC100
      TEMPO 2108/2112 BKN015=



000
FTUS41 KBGM 201600 AAC
TAFELM
TAF AMD
KELM 201632Z 2017/2112 VRB03KT P6SM -SHRA SCT020 OVC035
      TEMPO 2017/2020 2SM TSRA OVC020CB
     FM202000 19003KT 5SM -SHRA BR BKN050 OVC100
      TEMPO 2108/2112 BKN010=



000
FTUS41 KBGM 201600 AAB
TAFELM
TAF AMD
KELM 201628Z 2016/2112 VRB03KT P6SM SCT020 OVC035
      TEMPO 2016/2019 2SM RA OVC020
     FM202100 19003KT 5SM -SHRA BR BKN050 OVC100
      TEMPO 2108/2112 BKN010=



000
FTUS41 KBGM 201400 AAA
TAFAVP
TAF AMD
KAVP 201453Z 2015/2112 23004KT P6SM BKN050 OVC150
      TEMPO 2015/2018 BKN025
     FM210100 VRB03KT P6SM BKN050 OVC100
      TEMPO 2102/2106 4SM -SHRA BR
     FM210600 VRB05KT 5SM -SHRA BR BKN050 OVC100=



000
FTUS41 KBGM 201400 AAA
TAFELM
TAF AMD
KELM 201440Z 2015/2112 VRB03KT P6SM SCT020 OVC035
      TEMPO 2015/2017 OVC020
     FM201700 18005KT P6SM BKN050
      TEMPO 2017/2021 4SM -SHRA BR
     FM202100 19003KT 5SM -SHRA BR BKN050 OVC100
      TEMPO 2108/2112 BKN010=



000
FTUS41 KBGM 201100
TAFAVP
TAF
KAVP 201123Z 2012/2112 VRB03KT P6SM BKN060 BKN250
     FM201500 23004KT P6SM BKN050
     FM210100 VRB03KT P6SM BKN050 OVC100
      TEMPO 2102/2106 4SM -SHRA BR
     FM210600 VRB05KT 5SM -SHRA BR BKN050 OVC100=



000
FTUS41 KBGM 201100
TAFSYR
TAF
KSYR 201123Z 2012/2112 13003KT P6SM BKN250
     FM201600 20005KT P6SM BKN050
      TEMPO 2018/2022 4SM -SHRA BR
     FM202200 15005KT 5SM -SHRA BR BKN050 OVC100
      TEMPO 2108/2112 BKN025=



000
FTUS41 KBGM 201100
TAFELM
TAF
KELM 201123Z 2012/2112 00000KT P6SM FEW002 BKN060 OVC100
      TEMPO 2012/2014 4SM BR BKN016
     FM201400 20005KT P6SM BKN250
     FM201600 18005KT P6SM BKN050
      TEMPO 2017/2021 4SM -SHRA BR
     FM202100 19003KT 5SM -SHRA BR BKN050 OVC100
      TEMPO 2108/2112 BKN010=



000
FTUS41 KBGM 201100
TAFBGM
TAF
KBGM 201123Z 2012/2112 18005KT P6SM FEW060 BKN250
      TEMPO 2012/2015 BKN018
     FM201500 20006KT P6SM BKN050
      TEMPO 2018/2022 4SM -SHRA BR
     FM202200 18006KT 5SM -SHRA BR BKN050 OVC100
      TEMPO 2108/2112 BKN010=



000
FTUS41 KBGM 201100
TAFITH
TAF
KITH 201123Z 2012/2112 15004KT P6SM FEW060 BKN250
      TEMPO 2012/2015 BKN013
     FM201500 17006KT P6SM BKN050
      TEMPO 2017/2021 4SM -SHRA BR
     FM202100 16006KT 5SM -SHRA BR BKN050 OVC100
      TEMPO 2108/2112 BKN015=



000
FTUS41 KBGM 201000 AAC
TAFELM
TAF AMD
KELM 201013Z 2010/2106 00000KT P6SM BKN060 OVC100
      TEMPO 2010/2014 4SM BR BKN016
     FM201400 20005KT P6SM BKN250
     FM201600 18005KT P6SM BKN050
      TEMPO 2017/2021 4SM -SHRA BR
     FM202100 19003KT 5SM -SHRA BR BKN050 OVC100=



000
FTUS41 KBGM 201000 AAB
TAFBGM
TAF AMD
KBGM 201010Z 2010/2106 18005KT P6SM FEW060 BKN250
      TEMPO 2010/2014 BKN018
     FM201600 20006KT P6SM BKN050
      TEMPO 2018/2022 4SM -SHRA BR
     FM202200 18006KT 5SM -SHRA BR BKN050 OVC100=



000
FTUS41 KBGM 201000 AAB
TAFITH
TAF AMD
KITH 201003Z 2010/2106 15004KT P6SM FEW060 BKN250
      TEMPO 2010/2013 BKN013
     FM201500 17006KT P6SM BKN050
      TEMPO 2017/2021 4SM -SHRA BR
     FM202100 16006KT 5SM -SHRA BR BKN050 OVC100=



000
FTUS41 KBGM 200900 CCA
TAFELM
TAF COR
KELM 200921Z 2009/2106 00000KT 3SM BR SCT002
      TEMPO 2009/2013 1/2SM FG VV002
     FM201300 20005KT P6SM BKN250
     FM201600 18005KT P6SM BKN050
      TEMPO 2017/2021 4SM -SHRA BR
     FM202100 19003KT 5SM -SHRA BR BKN050 OVC100=



000
FTUS41 KBGM 200800 AAA
TAFSYR
TAF AMD
KSYR 200847Z 2009/2106 08004KT P6SM FEW060 BKN250
     FM201000 13003KT P6SM BKN250
     FM201600 20005KT P6SM BKN050
      TEMPO 2018/2022 4SM -SHRA BR
     FM202200 15005KT 5SM -SHRA BR BKN050 OVC100=



000
FTUS41 KBGM 200800 AAA
TAFBGM
TAF AMD
KBGM 200847Z 2009/2106 18005KT P6SM FEW060 BKN250
     FM201600 20006KT P6SM BKN050
      TEMPO 2018/2022 4SM -SHRA BR
     FM202200 18006KT 5SM -SHRA BR BKN050 OVC100=



000
FTUS41 KBGM 200800 AAB
TAFELM
TAF AMD
KELM 200847Z 2009/2106 00000KT 3SM BR SCT002
      TEMPO 2011/2013 1/2SM FG VV002
     FM201300 20005KT P6SM BKN250
     FM201600 18005KT P6SM BKN050
      TEMPO 2017/2021 4SM -SHRA BR
     FM202100 19003KT 5SM -SHRA BR BKN050 OVC100=



000
FTUS41 KBGM 200800 AAA
TAFITH
TAF AMD
KITH 200847Z 2009/2106 15004KT P6SM FEW060 BKN250
     FM201500 17006KT P6SM BKN050
      TEMPO 2017/2021 4SM -SHRA BR
     FM202100 16006KT 5SM -SHRA BR BKN050 OVC100=



000
FTUS41 KBGM 200800 AAA
TAFAVP
TAF AMD
KAVP 200847Z 2009/2106 VRB03KT P6SM BKN060 BKN250
     FM201500 23004KT P6SM BKN050
     FM210100 VRB03KT P6SM BKN050 OVC100
      TEMPO 2102/2106 5SM -SHRA BR=



000
FTUS41 KBGM 200600 AAA
TAFELM
TAF AMD
KELM 200612Z 2006/2106 00000KT 3SM BR SCT002 BKN250
      TEMPO 2006/2010 1/4SM FG VV002
     FM201000 00000KT 1/2SM FG VV002
      TEMPO 2011/2013 3SM BR OVC003
     FM201300 20005KT P6SM BKN250
     FM201600 18005KT P6SM BKN050
      TEMPO 2017/2021 4SM -SHRA BR
     FM202100 19003KT 5SM -SHRA BR BKN050 OVC100=



000
FTUS41 KBGM 200500
TAFAVP
TAF
KAVP 200532Z 2006/2106 VRB03KT P6SM BKN060 BKN250
     FM201500 23004KT P6SM BKN050
     FM210100 VRB03KT P6SM BKN050 OVC100
      TEMPO 2102/2106 5SM -SHRA BR=



000
FTUS41 KBGM 200500
TAFSYR
TAF
KSYR 200532Z 2006/2106 08004KT P6SM FEW060 BKN250
     FM201000 13003KT P6SM BKN250
     FM201600 20005KT P6SM BKN050
      TEMPO 2018/2022 4SM -SHRA BR
     FM202200 15005KT 5SM -SHRA BR BKN050 OVC100=



000
FTUS41 KBGM 200500
TAFBGM
TAF
KBGM 200532Z 2006/2106 19005KT P6SM FEW060 BKN250
      TEMPO 2006/2010 4SM BR BKN025
     FM201600 20006KT P6SM BKN050
      TEMPO 2018/2022 4SM -SHRA BR
     FM202200 18006KT 5SM -SHRA BR BKN050 OVC100=



000
FTUS41 KBGM 200500
TAFELM
TAF
KELM 200532Z 2006/2106 00000KT 3SM BR SCT002 BKN250
      TEMPO 2006/2010 1/2SM FG VV002
     FM201000 00000KT 1/2SM FG VV002
      TEMPO 2011/2013 3SM BR OVC003
     FM201300 20005KT P6SM BKN250
     FM201600 18005KT P6SM BKN050
      TEMPO 2017/2021 4SM -SHRA BR
     FM202100 19003KT 5SM -SHRA BR BKN050 OVC100=



000
FTUS41 KBGM 200500
TAFITH
TAF
KITH 200532Z 2006/2106 15004KT P6SM FEW060 BKN250
      TEMPO 2009/2013 4SM BR OVC025
     FM201500 17006KT P6SM BKN050
      TEMPO 2017/2021 4SM -SHRA BR
     FM202100 16006KT 5SM -SHRA BR BKN050 OVC100=



000
FTUS41 KBGM 200300 AAA
TAFELM
TAF AMD
KELM 200359Z 2004/2024 00000KT 3SM BR SCT002 BKN250
      TEMPO 2004/2008 1/2SM FG VV002
     FM201300 21007KT P6SM SCT010
     FM201600 18005KT P6SM BKN035
      TEMPO 2020/2024 -SHRA=



000
FTUS41 KBGM 192300
TAFSYR
TAF
KSYR 192328Z 2000/2024 08004KT P6SM FEW050 FEW250
     FM201000 13003KT P6SM BKN100
     FM201700 16006KT P6SM BKN050 PROB30 2018/2024 -SHRA=



000
FTUS41 KBGM 192300
TAFITH
TAF
KITH 192328Z 2000/2024 14004KT P6SM SCT060
     FM200400 12004KT P6SM FEW060 SCT250
      TEMPO 2009/2013 4SM BR OVC012
     FM201300 16006KT P6SM SCT025
     FM201500 18006KT P6SM BKN035
      TEMPO 2020/2024 -SHRA=



000
FTUS41 KBGM 192300
TAFBGM
TAF
KBGM 192328Z 2000/2024 18003KT P6SM SCT060
      TEMPO 2009/2013 4SM BR BKN012
     FM201300 19005KT P6SM SCT025
     FM201500 19005KT P6SM BKN035
      TEMPO 2020/2024 -SHRA=



000
FTUS41 KBGM 192300
TAFAVP
TAF
KAVP 192328Z 2000/2024 VRB03KT P6SM SCT060
     FM201400 21004KT P6SM BKN040=



000
FTUS41 KBGM 192300
TAFELM
TAF
KELM 192328Z 2000/2024 19005KT P6SM FEW040
     FM200400 VRB03KT P6SM SCT250
     FM200800 00000KT 2SM BR SCT002 BKN250
      TEMPO 2009/2012 3/4SM BR
     FM201300 21007KT P6SM SCT010
     FM201600 18005KT P6SM BKN035
      TEMPO 2020/2024 -SHRA=



    US Dept of Commerce
    National Oceanic and Atmospheric Administration
    National Weather Service
    1325 East West Highway
    Silver Spring, MD 20910
    Page Author: NWS Internet Services Team
Disclaimer
Information Quality
Credits
Glossary
Privacy Policy
Freedom of Information Act (FOIA)
About Us
Career Opportunities